• Join FlightAware (Why Join?)
  • Login
  • US Flag 
11:24AM EDT


 

Airport Tracker/Info


-or-


 

Live Flight TrackerFlight Track Log ✈ N62AZ ✈ 22-Jul-2013 ✈ KDET - KDSM

Flight Track Log - Related Links

Times and Time Zones

All times are in EDT time to prevent confusion due to time zone crossing. See the N62AZ flight status page for this flight to view local times or setup timezone preferences in your user account.

Time Position Orientation Groundspeed Altitude Reporting Facility
EDT Latitude Longitude Course Direction KTS MPH feet Rate Location/Type
08:19AM 42.3972 -82.9983 146° Southeast 150 173 1,200  Level Cleveland Center
08:20AM 42.3808 -82.9836 146° Southeast 148 170 1,900 1,440 Climbing Cleveland Center
08:21AM 42.3311 -82.9761 174° South 190 219 3,400 1,440 Climbing Cleveland Center
08:22AM 42.2783 -82.9994 198° South 206 237 4,900 780 Climbing Cleveland Center
08:23AM 42.2233 -83.0422 210° Southwest 247 284 5,000  Climbing Cleveland Center
08:24AM 42.1903 -83.1250 242° Southwest 277 319 5,000  Level Cleveland Center
08:25AM 42.2297 -83.2247 298° West 274 315 5,000 240 Level Cleveland Center
08:26AM 42.2631 -83.3186 296° West 253 291 5,600 420 Climbing Cleveland Center
08:27AM 42.2792 -83.4206 282° West 258 297 6,000 180 Climbing Cleveland Center
08:28AM 42.2997 -83.5169 286° West 271 312 6,000 240 Level Cleveland Center
08:29AM 42.3161 -83.6131 283° West 270 311 6,500 540 Climbing Cleveland Center
08:30AM 42.3306 -83.6925 284° West 245 282 7,000 240 Climbing Cleveland Center
08:31AM 42.3508 -83.7919 285° West 262 302 7,000  Level Cleveland Center
08:32AM 42.3708 -83.8942 285° West 268 308 7,000 180 Level Cleveland Center
08:33AM 42.3867 -83.9906 283° West 278 320 7,400 1,080 Climbing Cleveland Center
08:34AM 42.4031 -84.0731 285° West 257 296 9,400 1,740 Climbing Cleveland Center
08:35AM 42.4175 -84.1497 284° West 228 262 10,900 780 Climbing Cleveland Center
08:36AM 42.4272 -84.2347 279° West 222 255 11,000  Climbing Cleveland Center
08:37AM 42.4300 -84.3389 272° West 250 288 11,000 540 Level Cleveland Center
08:38AM 42.4325 -84.3961 273° West 267 307 12,000 1,920 Climbing Chicago Center
08:39AM 42.4353 -84.4928 272° West 220 253 14,300 1,860 Climbing Chicago Center
08:40AM 42.4369 -84.5711 272° West 210 242 15,900 1,440 Climbing Chicago Center
08:41AM 42.4381 -84.6475 271° West 204 235 17,300 1,200 Climbing Chicago Center
08:42AM 42.4406 -84.7261 272° West 208 239 18,400 1,080 Climbing Chicago Center
08:43AM 42.4431 -84.8053 272° West 210 242 19,600 1,080 Climbing Chicago Center
08:44AM 42.4442 -84.8828 271° West 208 239 20,700 1,140 Climbing Chicago Center
08:45AM 42.4461 -84.9733 272° West 202 232 22,000 1,020 Climbing Chicago Center
08:46AM 42.4478 -85.0489 272° West 200 230 22,900 1,080 Climbing Chicago Center
08:47AM 42.4494 -85.1197 272° West 193 222 24,300 1,080 Climbing Chicago Center
08:48AM 42.4500 -85.1831 271° West 176 203 25,200 720 Climbing Chicago Center
08:49AM 42.4511 -85.2464 271° West 171 197 25,900 360 Climbing Chicago Center
08:50AM 42.4525 -85.3183 272° West 180 207 26,000  Climbing Chicago Center
08:51AM 42.4550 -85.4225 272° West 219 252 26,000  Level Chicago Center
08:52AM 42.4572 -85.5183 272° West 247 284 26,000  Level Chicago Center
08:53AM 42.4586 -85.6158 271° West 257 296 26,000  Level Chicago Center
08:54AM 42.4603 -85.7142 271° West 261 300 26,000  Level Chicago Center
08:55AM 42.4622 -85.8133 272° West 263 303 26,000  Level Chicago Center
08:56AM 42.4633 -85.9144 271° West 267 307 26,000  Level Chicago Center
08:57AM 42.4633 -86.0156 270° West 267 307 26,000  Level Chicago Center
08:58AM 42.4628 -86.1372 270° West 268 308 26,000  Level Chicago Center
08:59AM 42.4525 -86.2378 262° West 269 310 26,000  Level Chicago Center
09:01AM 42.4439 -86.3383 263° West 269 310 26,000  Level Chicago Center
09:02AM 42.4353 -86.4400 263° West 271 312 26,000  Level Chicago Center
09:03AM 42.4247 -86.5428 262° West 274 315 26,000  Level Chicago Center
09:04AM 42.4158 -86.6436 263° West 271 312 26,000  Level Chicago Center
09:05AM 42.4067 -86.7669 264° West 280 322 26,000  Level Chicago Center
09:06AM 42.3953 -86.8708 262° West 280 322 26,000  Level Chicago Center
09:07AM 42.3864 -86.9767 264° West 284 327 26,000  Level Chicago Center
09:08AM 42.3733 -87.0786 260° West 279 321 26,000  Level Chicago Center
09:09AM 42.3617 -87.2061 263° West 286 329 26,000  Level Chicago Center
09:10AM 42.3517 -87.3114 263° West 286 329 26,000  Level Chicago Center
09:11AM 42.3414 -87.4172 263° West 286 329 26,000  Level Chicago Center
09:12AM 42.3306 -87.5228 262° West 285 328 26,000  Level Chicago Center
09:13AM 42.3178 -87.6481 262° West 284 327 26,000  Level Chicago Center
09:14AM 42.3072 -87.7539 262° West 286 329 26,000  Level Chicago Center
09:15AM 42.2956 -87.8581 261° West 284 327 26,000  Level Chicago Center
09:16AM 42.2847 -87.9622 262° West 283 326 26,000  Level Chicago Center
09:17AM 42.2733 -88.0675 262° West 287 330 26,000  Level Chicago Center
09:18AM 42.2611 -88.1906 262° West 281 323 26,000  Level Chicago Center
09:19AM 42.2489 -88.2950 261° West 282 325 26,000  Level Chicago Center
09:20AM 42.2369 -88.3986 261° West 281 323 26,000  Level Chicago Center
09:21AM 42.2261 -88.5017 262° West 278 320 26,000  Level Chicago Center
09:22AM 42.2150 -88.6039 262° West 279 321 26,000  Level Chicago Center
09:23AM 42.2017 -88.7283 262° West 283 326 26,000  Level Chicago Center
09:24AM 42.1892 -88.8311 261° West 281 323 26,000  Level Chicago Center
09:25AM 42.1775 -88.9322 261° West 280 322 26,000  Level Chicago Center
09:26AM 42.1658 -89.0386 262° West 286 329 26,000  Level Chicago Center
09:27AM 42.1517 -89.1608 261° West 285 328 26,000  Level Chicago Center
09:28AM 42.1392 -89.2656 261° West 284 327 26,000  Level Chicago Center
09:29AM 42.1264 -89.3700 261° West 283 326 26,000  Level Chicago Center
09:31AM 42.1144 -89.4744 261° West 281 323 26,000  Level Chicago Center
09:32AM 42.1025 -89.5794 261° West 283 326 26,000  Level Chicago Center
09:33AM 42.0906 -89.6831 261° West 280 322 26,000  Level Chicago Center
09:34AM 42.0750 -89.8039 260° West 280 322 26,000  Level Chicago Center
09:35AM 42.0628 -89.9050 261° West 278 320 26,000  Level Chicago Center
09:36AM 42.0511 -90.0103 262° West 283 326 26,000  Level Chicago Center
09:37AM 42.0383 -90.1125 260° West 281 323 26,000  Level Chicago Center
09:38AM 42.0242 -90.2158 260° West 282 325 26,000  Level Chicago Center
09:39AM 42.0094 -90.3356 261° West 276 318 26,000  Level Chicago Center
09:40AM 41.9961 -90.4381 260° West 280 322 26,000  Level Chicago Center
09:41AM 41.9839 -90.5375 261° West 274 315 26,000  Level Chicago Center
09:42AM 41.9692 -90.6422 259° West 281 323 26,000  Level Chicago Center
09:44AM 41.9406 -90.8639 260° West 277 319 26,000  Level Chicago Center
09:45AM 41.9272 -90.9653 260° West 279 321 26,000  Level Chicago Center
09:46AM 41.9136 -91.0667 260° West 278 320 26,000  Level Chicago Center
09:47AM 41.9000 -91.1664 260° West 275 316 26,000  Level Chicago Center
09:48AM 41.8864 -91.2689 260° West 277 319 26,000  Level Chicago Center
09:49AM 41.8728 -91.3683 260° West 276 318 26,000  Level Chicago Center
09:50AM 41.8553 -91.4886 259° West 276 318 26,000  Level Chicago Center
09:51AM 41.8417 -91.5881 260° West 273 314 26,000 -420 Level Chicago Center
09:52AM 41.8272 -91.6931 260° West 283 326 25,200 -960 Descending Chicago Center
09:53AM 41.8122 -91.8047 260° West 301 346 24,100 -1,080 Descending Chicago Center
09:54AM 41.7958 -91.9200 259° West 313 360 23,000 -1,200 Descending Chicago Center
09:55AM 41.7767 -92.0564 259° West 313 360 21,700 -1,200 Descending Chicago Center
09:56AM 41.7592 -92.1697 258° West 312 359 20,600 -1,140 Descending Chicago Center
09:57AM 41.7417 -92.2800 258° West 309 356 19,400 -1,260 Descending Chicago Center
09:58AM 41.7256 -92.4000 260° West 319 367 18,000 -1,320 Descending Chicago Center
09:59AM 41.7097 -92.5156 260° West 317 365 16,700 -1,320 Descending Chicago Center
10:00AM 41.6933 -92.6303 259° West 315 362 15,400 -1,380 Descending Minneapolis Center
10:01AM 41.6758 -92.7397 258° West 306 352 14,000 -1,560 Descending Minneapolis Center
10:03AM 41.6553 -92.8728 258° West 306 352 12,200 -1,620 Descending Minneapolis Center
10:04AM 41.6389 -92.9853 259° West 309 356 10,700 -1,560 Descending Minneapolis Center
10:04AM 41.6353 -93.0561 266° West 302 348 9,600 -1,560 Descending Minneapolis Center
10:05AM 41.6242 -93.1575 262° West 277 319 8,100 -1,620 Descending Minneapolis Center
10:06AM 41.6256 -93.2550 271° West 263 303 6,400 -1,080 Descending Minneapolis Center
10:07AM 41.6267 -93.3522 271° West 262 302 6,000 -360 Descending Minneapolis Center
10:08AM 41.6297 -93.4467 273° West 258 297 5,700 -900 Descending Minneapolis Center
10:09AM 41.6331 -93.5467 273° West 253 291 4,300 -1,380 Descending Minneapolis Center
10:10AM 41.6286 -93.6194 265° West 197 227 3,000 -960 Descending Minneapolis Center
10:11AM 41.6019 -93.6694 235° Southwest 150 173 2,300 -720 Descending Minneapolis Center
10:12AM 41.5697 -93.6889 204° Southwest 130 150 1,500 -540 Descending Minneapolis Center
10:14AM 41.5294 -93.6489 143° Southeast 135 155 1,100 -300 Descending Minneapolis Center